createdAt,value
2018-09-27T00:00:50.631Z,9.85
2018-09-27T00:01:50.604Z,9.71
2018-09-27T00:02:50.559Z,9.62
2018-09-27T00:03:50.568Z,9.62
2018-09-27T00:04:50.544Z,9.60
2018-09-27T00:05:50.530Z,9.56
2018-09-27T00:06:50.519Z,9.52
2018-09-27T00:07:50.544Z,9.44
2018-09-27T00:08:50.522Z,9.19
2018-09-27T00:09:50.486Z,9.12
2018-09-27T00:10:50.473Z,9.03
2018-09-27T00:11:50.464Z,8.85
2018-09-27T00:12:50.453Z,8.73
2018-09-27T00:13:50.490Z,8.49
2018-09-27T00:14:50.431Z,8.31
2018-09-27T00:15:50.421Z,8.14
2018-09-27T00:16:50.409Z,7.96
2018-09-27T00:17:50.401Z,7.77
2018-09-27T00:18:50.404Z,7.50
2018-09-27T00:19:50.423Z,7.45
2018-09-27T00:20:50.371Z,7.34
2018-09-27T00:21:50.356Z,7.21
2018-09-27T00:22:50.348Z,7.01
2018-09-27T00:23:50.350Z,6.93
2018-09-27T00:24:50.327Z,6.96
2018-09-27T00:25:50.351Z,6.69
2018-09-27T00:26:50.305Z,6.60
2018-09-27T00:27:50.294Z,6.60
2018-09-27T00:28:50.299Z,6.42
2018-09-27T00:29:50.274Z,6.36
2018-09-27T00:30:50.262Z,6.21
2018-09-27T00:33:00.004Z,6.03
2018-09-27T00:34:00.010Z,5.90
2018-09-27T00:34:59.979Z,5.92
2018-09-27T00:35:59.971Z,5.84
2018-09-27T00:36:59.989Z,5.80
2018-09-27T00:37:59.949Z,5.77
2018-09-27T00:38:59.966Z,5.87
2018-09-27T00:40:00.003Z,5.88
2018-09-27T00:40:59.928Z,6.01
2018-09-27T00:41:59.909Z,5.96
2018-09-27T00:42:59.896Z,5.93
2018-09-27T00:43:59.909Z,5.95
2018-09-27T00:44:59.990Z,5.87
2018-09-27T00:45:59.863Z,5.81
2018-09-27T00:46:59.852Z,5.80
2018-09-27T00:47:59.843Z,5.80
2018-09-27T00:48:59.829Z,5.81
2018-09-27T00:49:59.836Z,5.80
2018-09-27T00:50:59.856Z,5.83
2018-09-27T00:51:59.798Z,5.78
2018-09-27T00:52:59.824Z,5.73
2018-09-27T00:53:59.777Z,5.75
2018-09-27T00:54:59.782Z,5.59
2018-09-27T00:55:59.820Z,5.75
2018-09-27T00:56:59.759Z,5.77
2018-09-27T00:57:59.733Z,5.75
2018-09-27T00:58:59.721Z,5.60
2018-09-27T00:59:59.726Z,5.60
2018-09-27T01:00:59.702Z,5.60
2018-09-27T01:01:59.694Z,5.59
2018-09-27T01:02:59.722Z,5.55
2018-09-27T01:03:59.671Z,5.56
2018-09-27T01:04:59.692Z,5.47
2018-09-27T01:05:59.676Z,5.45
2018-09-27T01:06:59.638Z,5.52
2018-09-27T01:07:59.629Z,5.77
2018-09-27T01:08:59.877Z,5.87
2018-09-27T01:09:59.621Z,5.95
2018-09-27T01:10:59.594Z,5.78
2018-09-27T01:11:59.630Z,5.87
2018-09-27T01:12:59.574Z,5.85
2018-09-27T01:13:59.561Z,5.78
2018-09-27T01:14:59.617Z,5.87
2018-09-27T01:15:59.542Z,5.85
2018-09-27T01:16:59.530Z,5.78
2018-09-27T01:17:59.520Z,5.80
2018-09-27T01:18:59.505Z,5.80
2018-09-27T01:19:59.513Z,5.75
2018-09-27T01:20:59.504Z,5.73
2018-09-27T01:21:59.476Z,5.63
2018-09-27T01:22:59.465Z,5.59
2018-09-27T01:23:59.458Z,5.49
2018-09-27T01:24:59.457Z,5.52
2018-09-27T01:25:59.435Z,5.48
2018-09-27T01:26:59.449Z,5.49
2018-09-27T01:27:59.411Z,5.41
2018-09-27T01:28:59.402Z,5.49
2018-09-27T01:29:59.408Z,5.42
2018-09-27T01:30:59.380Z,5.42
2018-09-27T01:31:59.368Z,5.41
2018-09-27T01:32:59.393Z,5.45
2018-09-27T01:33:59.345Z,5.49
2018-09-27T01:34:59.363Z,5.56
2018-09-27T01:35:59.323Z,5.74
2018-09-27T01:36:59.316Z,5.83
2018-09-27T01:37:59.384Z,5.90
2018-09-27T01:38:59.334Z,6.05
2018-09-27T01:39:59.280Z,6.20
2018-09-27T01:40:59.418Z,6.20
2018-09-27T01:41:59.257Z,6.24
2018-09-27T01:42:59.246Z,6.19
2018-09-27T01:43:59.236Z,6.20
2018-09-27T01:44:59.263Z,6.14
2018-09-27T01:45:59.231Z,6.20
2018-09-27T01:46:59.247Z,6.24
2018-09-27T01:47:59.194Z,6.65
2018-09-27T01:48:59.187Z,6.90
2018-09-27T01:49:59.169Z,6.94
2018-09-27T01:50:59.218Z,6.97
2018-09-27T01:51:59.150Z,6.97
2018-09-27T01:52:59.139Z,7.01
2018-09-27T01:53:59.507Z,7.09
2018-09-27T01:54:59.118Z,7.09
2018-09-27T01:55:59.123Z,7.00
2018-09-27T01:56:59.268Z,6.97
2018-09-27T01:57:59.086Z,6.96
2018-09-27T01:58:59.074Z,6.83
2018-09-27T01:59:59.078Z,6.69
2018-09-27T02:00:59.073Z,6.61
2018-09-27T02:01:59.073Z,6.57
2018-09-27T02:02:59.031Z,6.90
2018-09-27T02:03:59.020Z,7.00
2018-09-27T02:04:59.010Z,7.12
2018-09-27T02:05:59.017Z,7.45
2018-09-27T02:06:59.017Z,7.47
2018-09-27T02:07:59.016Z,7.39
2018-09-27T02:08:59.055Z,7.41
2018-09-27T02:09:58.958Z,7.29
2018-09-27T02:10:58.967Z,7.19
2018-09-27T02:11:58.933Z,7.00
2018-09-27T02:12:58.923Z,6.83
2018-09-27T02:13:58.915Z,6.79
2018-09-27T02:14:58.930Z,6.57
2018-09-27T02:15:58.916Z,6.51
2018-09-27T02:16:58.883Z,6.36
2018-09-27T02:17:58.869Z,6.24
2018-09-27T02:18:58.857Z,6.17
2018-09-27T02:19:58.846Z,6.08
2018-09-27T02:20:58.854Z,5.99
2018-09-27T02:21:58.841Z,5.99
2018-09-27T02:22:58.869Z,6.05
2018-09-27T02:23:58.804Z,5.87
2018-09-27T02:24:58.793Z,6.02
2018-09-27T02:25:58.782Z,6.46
2018-09-27T02:26:58.823Z,6.57
2018-09-27T02:27:58.761Z,6.93
2018-09-27T02:28:58.753Z,7.12
2018-09-27T02:29:58.737Z,7.41
2018-09-27T02:30:58.733Z,7.47
2018-09-27T02:31:58.733Z,7.47
2018-09-27T02:32:58.756Z,7.63
2018-09-27T02:33:58.701Z,7.70
2018-09-27T02:34:58.686Z,7.84
2018-09-27T02:35:58.697Z,8.00
2018-09-27T02:36:58.681Z,8.14
2018-09-27T02:37:58.657Z,8.13
2018-09-27T02:38:58.793Z,8.31
2018-09-27T02:39:58.634Z,8.17
2018-09-27T02:40:58.623Z,8.22
2018-09-27T02:41:58.622Z,8.12
2018-09-27T02:42:58.603Z,7.95
2018-09-27T02:43:58.588Z,7.99
2018-09-27T02:44:58.616Z,7.94
2018-09-27T02:45:58.569Z,8.12
2018-09-27T02:46:58.574Z,8.28
2018-09-27T02:47:58.545Z,8.32
2018-09-27T02:48:58.538Z,8.40
2018-09-27T02:49:58.524Z,8.45
2018-09-27T02:50:58.588Z,8.57
2018-09-27T02:51:58.519Z,8.58
2018-09-27T02:52:58.494Z,8.64
2018-09-27T02:53:58.480Z,8.68
2018-09-27T02:54:58.469Z,8.82
2018-09-27T02:55:58.466Z,8.78
2018-09-27T02:56:58.511Z,8.73
2018-09-27T02:57:58.441Z,8.58
2018-09-27T02:58:58.430Z,8.47
2018-09-27T02:59:58.415Z,8.45
2018-09-27T03:00:58.407Z,8.67
2018-09-27T03:01:58.409Z,8.71
2018-09-27T03:02:58.424Z,8.86
2018-09-27T03:03:58.377Z,8.85
2018-09-27T03:04:58.364Z,8.89
2018-09-27T03:05:58.364Z,8.88
2018-09-27T03:06:58.365Z,8.88
2018-09-27T03:07:58.329Z,8.93
2018-09-27T03:08:58.358Z,8.98
2018-09-27T03:09:58.307Z,9.01
2018-09-27T03:10:58.303Z,8.98
2018-09-27T03:11:58.297Z,8.91
2018-09-27T03:12:58.295Z,9.06
2018-09-27T03:13:58.398Z,8.96
2018-09-27T03:14:58.279Z,8.98
2018-09-27T03:15:58.256Z,9.00
2018-09-27T03:16:58.235Z,9.04
2018-09-27T03:17:58.431Z,9.08
2018-09-27T03:18:58.210Z,9.04
2018-09-27T03:19:58.208Z,9.06
2018-09-27T03:20:58.338Z,9.08
2018-09-27T03:21:58.177Z,9.08
2018-09-27T03:22:58.181Z,9.19
2018-09-27T03:23:58.212Z,9.22
2018-09-27T03:24:58.151Z,9.27
2018-09-27T03:25:58.138Z,9.41
2018-09-27T03:26:58.161Z,9.37
2018-09-27T03:27:58.128Z,9.48
2018-09-27T03:28:58.103Z,9.34
2018-09-27T03:29:58.106Z,9.34
2018-09-27T03:30:58.094Z,9.35
2018-09-27T03:31:58.086Z,9.44
2018-09-27T03:33:12.763Z,9.49
2018-09-27T03:33:58.073Z,9.41
2018-09-27T03:34:58.062Z,9.45
2018-09-27T03:35:58.042Z,9.44
2018-09-27T03:36:58.055Z,9.45
2018-09-27T03:37:58.084Z,9.45
2018-09-27T03:38:57.994Z,9.38
2018-09-27T03:39:58.015Z,9.37
2018-09-27T03:40:57.975Z,9.38
2018-09-27T03:41:57.961Z,9.24
2018-09-27T03:42:57.962Z,9.30
2018-09-27T03:43:57.944Z,9.20
2018-09-27T03:44:57.929Z,9.20
2018-09-27T03:45:57.957Z,9.19
2018-09-27T03:46:57.909Z,9.24
2018-09-27T03:47:57.912Z,9.22
2018-09-27T03:48:57.886Z,9.35
2018-09-27T03:49:57.874Z,9.26
2018-09-27T03:50:57.865Z,9.44
2018-09-27T03:51:57.875Z,9.52
2018-09-27T03:52:57.856Z,9.44
2018-09-27T03:53:57.839Z,9.32
2018-09-27T03:54:57.822Z,9.45
2018-09-27T03:55:57.810Z,9.37
2018-09-27T03:56:57.798Z,9.48
2018-09-27T03:57:57.860Z,9.32
2018-09-27T03:58:57.779Z,9.34
2018-09-27T03:59:57.853Z,9.32
2018-09-27T04:00:57.757Z,9.37
2018-09-27T04:01:57.745Z,9.20
2018-09-27T04:02:57.831Z,9.12
2018-09-27T04:03:57.775Z,9.19
2018-09-27T04:04:57.717Z,9.22
2018-09-27T04:05:57.711Z,9.06
2018-09-27T04:06:57.706Z,8.98
2018-09-27T04:07:57.682Z,9.00
2018-09-27T04:08:57.696Z,9.10
2018-09-27T04:09:57.709Z,9.06
2018-09-27T04:10:57.666Z,9.13
2018-09-27T04:11:57.644Z,9.15
2018-09-27T04:12:57.639Z,9.06
2018-09-27T04:13:57.642Z,9.06
2018-09-27T04:14:57.609Z,8.98
2018-09-27T04:15:57.635Z,8.98
2018-09-27T04:16:57.588Z,8.83
2018-09-27T04:17:57.573Z,8.89
2018-09-27T04:18:57.578Z,8.91
2018-09-27T04:19:57.553Z,8.82
2018-09-27T04:20:57.550Z,8.71
2018-09-27T04:21:57.635Z,8.57
2018-09-27T04:22:57.524Z,8.55
2018-09-27T04:23:57.579Z,8.49
2018-09-27T04:24:57.535Z,8.37
2018-09-27T04:25:57.495Z,8.22
2018-09-27T04:26:57.476Z,8.09
2018-09-27T04:27:57.497Z,7.99
2018-09-27T04:28:57.475Z,7.79
2018-09-27T04:29:57.449Z,7.94
2018-09-27T04:30:57.432Z,7.96
2018-09-27T04:31:57.427Z,8.12
2018-09-27T04:32:57.424Z,8.28
2018-09-27T04:33:57.529Z,8.32
2018-09-27T04:34:57.388Z,8.32
2018-09-27T04:35:57.427Z,8.32
2018-09-27T04:36:57.368Z,8.32
2018-09-27T04:37:57.355Z,8.29
2018-09-27T04:38:57.532Z,8.22
2018-09-27T04:39:57.439Z,8.32
2018-09-27T04:40:57.382Z,8.17
2018-09-27T04:41:57.413Z,8.21
2018-09-27T04:42:57.302Z,8.29
2018-09-27T04:43:57.308Z,8.22
2018-09-27T04:44:57.342Z,8.28
2018-09-27T04:45:57.327Z,8.24
2018-09-27T04:46:57.261Z,8.28
2018-09-27T04:47:57.320Z,8.36
2018-09-27T04:48:57.255Z,8.29
2018-09-27T04:49:57.229Z,8.36
2018-09-27T04:50:57.231Z,8.28
2018-09-27T04:51:57.335Z,8.28
2018-09-27T04:52:57.200Z,8.32
2018-09-27T04:53:57.242Z,8.29
2018-09-27T04:54:57.176Z,8.14
2018-09-27T04:55:57.180Z,8.04
2018-09-27T04:56:57.151Z,7.99
2018-09-27T04:57:57.156Z,8.00
2018-09-27T04:58:57.146Z,8.00
2018-09-27T04:59:57.247Z,7.99
2018-09-27T05:00:57.125Z,8.02
2018-09-27T05:01:57.115Z,7.96
2018-09-27T05:02:57.106Z,7.99
2018-09-27T05:03:57.109Z,7.91
2018-09-27T05:04:57.107Z,8.00
2018-09-27T05:05:57.121Z,7.95
2018-09-27T05:06:57.059Z,7.99
2018-09-27T05:07:57.045Z,8.00
2018-09-27T05:08:57.041Z,8.02
2018-09-27T05:09:57.044Z,7.96
2018-09-27T05:10:57.016Z,7.95
2018-09-27T05:11:57.047Z,7.85
2018-09-27T05:12:56.993Z,7.81
2018-09-27T05:13:56.985Z,7.81
2018-09-27T05:14:56.987Z,7.67
2018-09-27T05:15:56.966Z,7.60
2018-09-27T05:16:56.954Z,7.66
2018-09-27T05:17:56.960Z,7.63
2018-09-27T05:18:56.934Z,7.58
2018-09-27T05:19:56.945Z,7.54
2018-09-27T05:20:56.957Z,7.57
2018-09-27T05:21:56.901Z,7.44
2018-09-27T05:22:56.898Z,7.51
2018-09-27T05:23:57.063Z,7.48
2018-09-27T05:24:56.882Z,7.60
2018-09-27T05:25:56.852Z,7.71
2018-09-27T05:26:56.967Z,7.85
2018-09-27T05:27:56.833Z,7.94
2018-09-27T05:28:56.822Z,8.03
2018-09-27T05:29:56.862Z,8.06
2018-09-27T05:30:56.809Z,7.96
2018-09-27T05:31:56.788Z,8.02
2018-09-27T05:32:56.776Z,7.99
2018-09-27T05:33:56.768Z,8.10
2018-09-27T05:34:56.774Z,8.12
2018-09-27T05:35:56.773Z,8.09
2018-09-27T05:36:56.798Z,8.22
2018-09-27T05:37:56.723Z,8.29
2018-09-27T05:38:56.714Z,8.28
2018-09-27T05:39:56.720Z,8.29
2018-09-27T05:40:56.693Z,8.31
2018-09-27T05:41:56.705Z,8.29
2018-09-27T05:42:56.670Z,8.31
2018-09-27T05:43:56.659Z,8.39
2018-09-27T05:44:56.665Z,8.28
2018-09-27T05:45:56.639Z,8.31
2018-09-27T05:46:56.628Z,8.45
2018-09-27T05:47:56.645Z,8.36
2018-09-27T05:48:56.606Z,8.29
2018-09-27T05:49:56.715Z,8.32
2018-09-27T05:50:56.584Z,8.27
2018-09-27T05:51:56.571Z,8.31
2018-09-27T05:52:56.563Z,8.32
2018-09-27T05:53:56.585Z,8.40
2018-09-27T05:54:56.569Z,8.36
2018-09-27T05:55:56.563Z,8.29
2018-09-27T05:56:56.517Z,8.31
2018-09-27T05:57:56.510Z,8.32
2018-09-27T05:58:56.497Z,8.28
2018-09-27T05:59:56.618Z,8.29
2018-09-27T06:00:56.491Z,8.24
2018-09-27T06:01:56.517Z,8.27
2018-09-27T06:02:56.559Z,8.21
2018-09-27T06:03:56.445Z,8.24
2018-09-27T06:04:56.434Z,8.22
2018-09-27T06:05:56.469Z,8.18
2018-09-27T06:06:56.413Z,8.18
2018-09-27T06:07:56.402Z,8.29
2018-09-27T06:08:56.389Z,8.18
2018-09-27T06:09:56.384Z,8.22
2018-09-27T06:10:56.399Z,8.21
2018-09-27T06:11:56.387Z,8.29
2018-09-27T06:12:56.349Z,8.52
2018-09-27T06:13:56.337Z,8.73
2018-09-27T06:14:56.325Z,9.44
2018-09-27T06:15:56.410Z,10.20
2018-09-27T06:16:56.305Z,10.63
2018-09-27T06:17:56.305Z,10.91
2018-09-27T06:18:56.308Z,11.42
2018-09-27T06:19:56.364Z,11.81
2018-09-27T06:20:56.275Z,12.15
2018-09-27T06:21:56.249Z,12.34
2018-09-27T06:22:56.242Z,12.40
2018-09-27T06:23:56.252Z,12.49
2018-09-27T06:24:56.217Z,12.43
2018-09-27T06:25:56.253Z,12.76
2018-09-27T06:26:56.195Z,13.04
2018-09-27T06:27:56.186Z,13.68
2018-09-27T06:28:56.220Z,13.90
2018-09-27T06:29:56.163Z,14.49
2018-09-27T06:30:56.179Z,14.46
2018-09-27T06:31:56.151Z,14.46
2018-09-27T06:32:56.152Z,14.78
2018-09-27T06:33:56.139Z,15.11
2018-09-27T06:34:56.280Z,15.23
2018-09-27T06:35:56.111Z,15.53
2018-09-27T06:36:56.087Z,15.55
2018-09-27T06:37:56.075Z,15.62
2018-09-27T06:38:56.065Z,15.37
2018-09-27T06:39:56.053Z,15.22
2018-09-27T06:40:56.087Z,15.66
2018-09-27T06:41:56.034Z,15.93
2018-09-27T06:42:56.025Z,15.60
2018-09-27T06:43:56.009Z,15.71
2018-09-27T06:44:55.999Z,15.81
2018-09-27T06:45:56.007Z,15.92
2018-09-27T06:46:56.004Z,16.40
2018-09-27T06:47:55.985Z,16.80
2018-09-27T06:48:55.992Z,16.88
2018-09-27T06:49:55.944Z,17.14
2018-09-27T06:50:55.932Z,17.00
2018-09-27T06:51:55.936Z,17.18
2018-09-27T06:52:55.910Z,16.77
2018-09-27T06:53:55.902Z,16.45
2018-09-27T06:54:56.006Z,16.48
2018-09-27T06:55:56.003Z,16.37
2018-09-27T06:56:55.882Z,16.48
2018-09-27T06:57:55.899Z,16.59
2018-09-27T06:58:55.849Z,16.17
2018-09-27T06:59:55.836Z,16.06
2018-09-27T07:00:55.915Z,16.08
2018-09-27T07:01:55.850Z,16.33
2018-09-27T07:02:55.829Z,16.57
2018-09-27T07:03:55.796Z,16.81
2018-09-27T07:04:55.827Z,17.02
2018-09-27T07:05:55.770Z,17.17
2018-09-27T07:06:55.780Z,17.32
2018-09-27T07:07:55.747Z,17.35
2018-09-27T07:08:55.767Z,17.30
2018-09-27T07:09:55.760Z,17.36
2018-09-27T07:10:55.717Z,16.99
2018-09-27T07:11:55.831Z,17.25
2018-09-27T07:12:55.791Z,17.05
2018-09-27T07:13:55.682Z,17.20
2018-09-27T07:14:55.672Z,17.17
2018-09-27T07:15:55.690Z,16.81
2018-09-27T07:16:55.702Z,16.91
2018-09-27T07:17:55.665Z,17.22
2018-09-27T07:18:55.625Z,17.36
2018-09-27T07:19:55.617Z,17.42
2018-09-27T07:20:55.606Z,16.88
2018-09-27T07:21:55.611Z,16.72
2018-09-27T07:22:55.582Z,16.59
2018-09-27T07:23:55.668Z,16.52
2018-09-27T07:24:55.562Z,16.51
2018-09-27T07:25:55.551Z,16.82
2018-09-27T07:26:55.577Z,17.10
2018-09-27T07:27:55.529Z,17.15
2018-09-27T07:28:55.518Z,17.28
2018-09-27T07:29:55.534Z,17.45
2018-09-27T07:30:55.498Z,17.49
2018-09-27T07:31:55.503Z,17.55
2018-09-27T07:32:55.473Z,17.94
2018-09-27T07:33:55.463Z,17.91
2018-09-27T07:34:55.452Z,17.65
2018-09-27T07:35:55.458Z,17.95
2018-09-27T07:36:55.458Z,17.60
2018-09-27T07:37:55.419Z,17.91
2018-09-27T07:38:55.408Z,18.31
2018-09-27T07:39:55.398Z,18.10
2018-09-27T07:40:55.389Z,18.09
2018-09-27T07:41:55.417Z,18.34
2018-09-27T07:42:55.450Z,17.99
2018-09-27T07:43:55.354Z,18.09
2018-09-27T07:44:55.348Z,18.21
2018-09-27T07:45:55.333Z,18.41
2018-09-27T07:46:55.321Z,18.41
2018-09-27T07:47:55.345Z,18.93
2018-09-27T07:48:55.300Z,19.23
2018-09-27T07:49:55.293Z,19.42
2018-09-27T07:50:55.276Z,19.67
2018-09-27T07:51:55.267Z,19.64
2018-09-27T07:52:55.274Z,19.86
2018-09-27T07:53:55.262Z,20.17
2018-09-27T07:54:55.289Z,20.12
2018-09-27T07:55:55.223Z,19.52
2018-09-27T07:56:55.216Z,19.68
2018-09-27T07:57:55.225Z,19.83
2018-09-27T07:58:55.194Z,19.75
2018-09-27T07:59:55.183Z,19.71
2018-09-27T08:00:55.223Z,19.27
2018-09-27T08:01:55.215Z,18.69
2018-09-27T08:02:55.355Z,18.64
2018-09-27T08:03:55.134Z,18.78
2018-09-27T08:04:55.123Z,18.94
2018-09-27T08:05:55.147Z,18.94
2018-09-27T08:06:55.102Z,19.17
2018-09-27T08:07:55.179Z,19.49
2018-09-27T08:08:55.211Z,20.08
2018-09-27T08:09:55.090Z,20.68
2018-09-27T08:10:55.114Z,20.68
2018-09-27T08:11:55.128Z,20.44
2018-09-27T08:12:55.073Z,20.83
2018-09-27T08:13:55.050Z,21.05
2018-09-27T08:14:55.016Z,21.48
2018-09-27T08:15:55.010Z,21.55
2018-09-27T08:16:55.091Z,21.81
2018-09-27T08:17:55.060Z,21.91
2018-09-27T08:18:54.980Z,21.68
2018-09-27T08:19:54.973Z,21.82
2018-09-27T08:20:55.126Z,21.81
2018-09-27T08:21:55.075Z,21.90
2018-09-27T08:22:54.985Z,21.85
2018-09-27T08:23:54.964Z,22.01
2018-09-27T08:24:54.972Z,22.04
2018-09-27T08:25:54.940Z,22.05
2018-09-27T08:26:54.942Z,21.28
2018-09-27T08:27:54.911Z,20.93
2018-09-27T08:28:54.873Z,20.42
2018-09-27T08:29:54.862Z,20.05
2018-09-27T08:30:54.953Z,20.08
2018-09-27T08:31:54.851Z,19.92
2018-09-27T08:32:54.892Z,20.50
2018-09-27T08:33:54.825Z,21.01
2018-09-27T08:34:54.817Z,21.27
2018-09-27T08:35:54.804Z,21.28
2018-09-27T08:36:54.778Z,21.43
2018-09-27T08:37:54.784Z,21.63
2018-09-27T08:38:54.773Z,22.05
2018-09-27T08:39:54.806Z,21.63
2018-09-27T08:40:54.766Z,21.08
2018-09-27T08:41:54.740Z,20.54
2018-09-27T08:42:54.775Z,20.07
2018-09-27T08:43:54.713Z,20.19
2018-09-27T08:44:54.884Z,20.27
2018-09-27T08:45:54.788Z,20.19
2018-09-27T08:46:54.681Z,21.06
2018-09-27T08:47:54.721Z,21.33
2018-09-27T08:48:54.670Z,20.64
2018-09-27T08:49:54.681Z,19.90
2018-09-27T08:50:54.629Z,20.02
2018-09-27T08:51:54.617Z,20.58
2018-09-27T08:52:54.661Z,21.00
2018-09-27T08:53:54.675Z,21.05
2018-09-27T08:54:54.595Z,21.19
2018-09-27T08:55:54.723Z,21.82
2018-09-27T08:56:54.598Z,21.71
2018-09-27T08:57:54.616Z,22.04
2018-09-27T08:58:54.561Z,22.29
2018-09-27T08:59:54.568Z,22.69
2018-09-27T09:00:54.546Z,22.11
2018-09-27T09:01:54.537Z,22.04
2018-09-27T09:02:54.500Z,22.19
2018-09-27T09:03:54.854Z,22.42
2018-09-27T09:04:54.483Z,22.60
2018-09-27T09:05:54.459Z,23.01
2018-09-27T09:06:54.584Z,23.64
2018-09-27T09:07:54.460Z,23.68
2018-09-27T09:08:54.447Z,23.60
2018-09-27T09:09:54.415Z,22.72
2018-09-27T09:10:54.409Z,22.33
2018-09-27T09:11:54.415Z,22.24
2018-09-27T09:12:54.423Z,22.60
2018-09-27T09:13:54.427Z,22.97
2018-09-27T09:14:54.362Z,23.32
2018-09-27T09:15:54.419Z,23.03
2018-09-27T09:16:54.347Z,22.48
2018-09-27T09:17:54.339Z,22.69
2018-09-27T09:18:54.411Z,22.72
2018-09-27T09:19:54.321Z,22.33
2018-09-27T09:20:54.297Z,22.75
2018-09-27T09:21:54.297Z,23.04
2018-09-27T09:22:54.281Z,23.11
2018-09-27T09:23:54.380Z,22.63
2018-09-27T09:24:54.274Z,22.79
2018-09-27T09:25:54.349Z,23.07
2018-09-27T09:26:54.279Z,23.15
2018-09-27T09:27:54.270Z,23.07
2018-09-27T09:28:54.242Z,23.01
2018-09-27T09:29:54.275Z,23.06
2018-09-27T09:30:54.227Z,22.94
2018-09-27T09:31:54.246Z,23.16
2018-09-27T09:32:54.178Z,23.07
2018-09-27T09:33:54.196Z,22.89
2018-09-27T09:34:54.185Z,23.62
2018-09-27T09:35:54.232Z,23.89
2018-09-27T09:36:54.142Z,23.86
2018-09-27T09:37:54.135Z,23.49
2018-09-27T09:38:54.123Z,22.74
2018-09-27T09:39:54.140Z,22.66
2018-09-27T09:40:54.101Z,22.70
2018-09-27T09:41:54.106Z,21.86
2018-09-27T09:42:54.095Z,21.71
2018-09-27T09:43:54.079Z,21.22
2018-09-27T09:44:54.050Z,21.34
2018-09-27T09:45:54.072Z,21.58
2018-09-27T09:46:54.045Z,21.79
2018-09-27T09:47:54.035Z,22.41
2018-09-27T09:48:54.099Z,22.93
2018-09-27T09:49:54.025Z,23.12
2018-09-27T09:50:54.014Z,23.50
2018-09-27T09:51:54.005Z,23.19
2018-09-27T09:52:53.955Z,22.85
2018-09-27T09:53:53.943Z,23.04
2018-09-27T09:54:53.958Z,23.29
2018-09-27T09:55:53.930Z,23.22
2018-09-27T09:56:53.948Z,23.14
2018-09-27T09:57:53.941Z,22.75
2018-09-27T09:58:53.923Z,23.22
2018-09-27T09:59:53.908Z,23.59
2018-09-27T10:00:53.894Z,22.91
2018-09-27T10:01:53.890Z,22.89
2018-09-27T10:02:53.865Z,23.41
2018-09-27T10:03:53.880Z,23.93
2018-09-27T10:04:53.843Z,24.15
2018-09-27T10:05:53.844Z,24.49
2018-09-27T10:06:53.808Z,24.66
2018-09-27T10:07:53.805Z,24.48
2018-09-27T10:08:53.891Z,24.09
2018-09-27T10:09:53.795Z,24.52
2018-09-27T10:10:53.784Z,24.83
2018-09-27T10:11:53.771Z,24.67
2018-09-27T10:12:53.767Z,24.94
2018-09-27T10:13:53.746Z,24.68
2018-09-27T10:14:53.782Z,24.97
2018-09-27T10:15:53.715Z,24.49
2018-09-27T10:16:53.701Z,24.41
2018-09-27T10:17:53.709Z,24.34
2018-09-27T10:18:53.728Z,25.11
2018-09-27T10:19:53.691Z,25.39
2018-09-27T10:20:53.658Z,25.41
2018-09-27T10:21:53.670Z,25.17
2018-09-27T10:22:53.643Z,24.71
2018-09-27T10:23:53.674Z,24.63
2018-09-27T10:24:53.854Z,25.27
2018-09-27T10:25:53.607Z,25.69
2018-09-27T10:26:53.616Z,25.96
2018-09-27T10:27:53.635Z,26.19
2018-09-27T10:28:53.594Z,26.38
2018-09-27T10:29:53.602Z,26.38
2018-09-27T10:30:53.679Z,26.19
2018-09-27T10:31:53.549Z,26.28
2018-09-27T10:32:53.534Z,26.34
2018-09-27T10:33:53.532Z,26.32
2018-09-27T10:34:53.535Z,26.11
2018-09-27T10:35:53.538Z,25.81
2018-09-27T10:36:53.552Z,25.64
2018-09-27T10:37:53.494Z,25.42
2018-09-27T10:38:53.478Z,25.31
2018-09-27T10:39:53.985Z,25.66
2018-09-27T10:40:53.473Z,25.82
2018-09-27T10:41:53.473Z,25.78
2018-09-27T10:42:53.455Z,26.06
2018-09-27T10:43:53.410Z,25.96
2018-09-27T10:44:53.451Z,26.23
2018-09-27T10:45:53.409Z,26.20
2018-09-27T10:46:53.371Z,26.13
2018-09-27T10:47:53.368Z,26.46
2018-09-27T10:48:53.393Z,26.49
2018-09-27T10:49:53.339Z,26.21
2018-09-27T10:50:53.411Z,26.32
2018-09-27T10:51:53.346Z,26.39
2018-09-27T10:52:53.378Z,26.59
2018-09-27T10:53:53.358Z,26.23
2018-09-27T10:54:53.355Z,25.76
2018-09-27T10:55:53.360Z,25.44
2018-09-27T10:56:53.281Z,25.45
2018-09-27T10:57:53.291Z,25.97
2018-09-27T10:58:53.294Z,26.29
2018-09-27T10:59:53.310Z,26.24
2018-09-27T11:00:53.377Z,26.08
2018-09-27T11:01:53.234Z,26.66
2018-09-27T11:02:53.210Z,27.02
2018-09-27T11:03:53.245Z,27.38
2018-09-27T11:04:53.186Z,27.20
2018-09-27T11:05:53.208Z,27.18
2018-09-27T11:06:53.213Z,26.11
2018-09-27T11:07:53.177Z,26.09
2018-09-27T11:08:53.168Z,26.16
2018-09-27T11:09:53.389Z,25.85
2018-09-27T11:10:53.167Z,25.72
2018-09-27T11:11:53.133Z,25.81
2018-09-27T11:12:53.279Z,26.08
2018-09-27T11:13:53.102Z,26.35
2018-09-27T11:14:53.118Z,26.28
2018-09-27T11:15:53.092Z,26.47
2018-09-27T11:16:53.063Z,27.02
2018-09-27T11:17:53.091Z,26.24
2018-09-27T11:18:53.059Z,25.97
2018-09-27T11:19:53.042Z,25.93
2018-09-27T11:20:53.056Z,26.11
2018-09-27T11:21:53.018Z,26.53
2018-09-27T11:22:53.008Z,26.96
2018-09-27T11:23:52.987Z,26.97
2018-09-27T11:24:52.974Z,26.94
2018-09-27T11:25:52.996Z,27.09
2018-09-27T11:26:52.948Z,27.27
2018-09-27T11:27:52.944Z,27.18
2018-09-27T11:28:52.953Z,26.84
2018-09-27T11:29:52.932Z,26.69
2018-09-27T11:30:52.914Z,26.69
2018-09-27T11:31:52.923Z,26.81
2018-09-27T11:32:52.904Z,26.94
2018-09-27T11:33:52.898Z,26.68
2018-09-27T11:34:52.885Z,26.29
2018-09-27T11:35:52.865Z,26.13
2018-09-27T11:36:52.875Z,25.97
2018-09-27T11:37:52.847Z,25.78
2018-09-27T11:38:52.827Z,25.93
2018-09-27T11:39:52.813Z,26.09
2018-09-27T11:40:52.829Z,25.82
2018-09-27T11:41:52.814Z,25.49
2018-09-27T11:42:52.875Z,25.85
2018-09-27T11:43:52.815Z,25.97
2018-09-27T11:44:52.758Z,26.23
2018-09-27T11:45:52.780Z,26.27
2018-09-27T11:46:52.754Z,26.16
2018-09-27T11:47:52.752Z,26.23
2018-09-27T11:48:52.766Z,26.23
2018-09-27T11:49:52.817Z,26.17
2018-09-27T11:50:52.751Z,26.08
2018-09-27T11:51:52.917Z,25.66
2018-09-27T11:52:52.676Z,25.46
2018-09-27T11:53:52.692Z,25.35
2018-09-27T11:54:52.692Z,25.41
2018-09-27T11:55:52.694Z,25.45
2018-09-27T11:56:52.647Z,25.49
2018-09-27T11:57:52.635Z,25.38
2018-09-27T11:58:52.644Z,25.46
2018-09-27T11:59:52.634Z,25.39
2018-09-27T12:00:52.633Z,25.26
2018-09-27T12:01:52.596Z,25.09
2018-09-27T12:02:52.591Z,25.27
2018-09-27T12:03:52.554Z,25.07
2018-09-27T12:04:52.558Z,24.63
2018-09-27T12:05:52.563Z,24.21
2018-09-27T12:06:52.557Z,24.24
2018-09-27T12:07:52.622Z,24.29
2018-09-27T12:08:52.544Z,24.45
2018-09-27T12:09:52.491Z,24.11
2018-09-27T12:10:52.543Z,23.97
2018-09-27T12:11:52.514Z,24.04
2018-09-27T12:12:52.500Z,23.99
2018-09-27T12:13:52.466Z,24.14
2018-09-27T12:14:52.443Z,24.18
2018-09-27T12:15:52.431Z,24.14
2018-09-27T12:16:52.531Z,23.89
2018-09-27T12:17:52.433Z,23.96
2018-09-27T12:18:52.419Z,23.93
2018-09-27T12:19:52.485Z,23.94
2018-09-27T12:20:52.433Z,23.97
2018-09-27T12:21:52.446Z,24.12
2018-09-27T12:22:52.418Z,24.15
2018-09-27T12:23:52.355Z,23.96
2018-09-27T12:24:52.383Z,23.84
2018-09-27T12:25:52.327Z,23.68
2018-09-27T12:26:52.360Z,23.68
2018-09-27T12:27:52.293Z,23.62
2018-09-27T12:28:52.316Z,23.71
2018-09-27T12:29:52.286Z,23.64
2018-09-27T12:30:52.279Z,23.54
2018-09-27T12:31:52.272Z,23.57
2018-09-27T12:32:52.288Z,23.56
2018-09-27T12:33:52.245Z,23.52
2018-09-27T12:34:52.232Z,23.35
2018-09-27T12:35:52.214Z,23.35
2018-09-27T12:36:52.341Z,23.54
2018-09-27T12:37:52.243Z,23.64
2018-09-27T12:38:52.282Z,23.63
2018-09-27T12:39:52.170Z,23.60
2018-09-27T12:40:52.166Z,23.59
2018-09-27T12:41:52.209Z,23.57
2018-09-27T12:42:52.221Z,23.67
2018-09-27T12:43:52.180Z,23.64
2018-09-27T12:44:52.164Z,23.79
2018-09-27T12:45:52.167Z,23.86
2018-09-27T12:46:52.207Z,23.79
2018-09-27T12:47:52.129Z,23.87
2018-09-27T12:48:52.106Z,23.87
2018-09-27T12:49:52.084Z,23.94
2018-09-27T12:50:52.079Z,23.79
2018-09-27T12:51:52.216Z,23.87
2018-09-27T12:52:52.400Z,23.92
2018-09-27T12:53:52.019Z,23.90
2018-09-27T12:54:52.067Z,23.96
2018-09-27T12:55:52.004Z,23.97
2018-09-27T12:56:51.986Z,23.92
2018-09-27T12:57:51.986Z,23.81
2018-09-27T12:58:52.007Z,23.87
2018-09-27T12:59:51.986Z,23.87
2018-09-27T13:00:51.998Z,23.97
2018-09-27T13:01:52.042Z,23.93
2018-09-27T13:02:52.089Z,23.94
2018-09-27T13:03:51.922Z,23.97
2018-09-27T13:04:51.912Z,23.89
2018-09-27T13:05:51.917Z,23.82